Time;durP1;ratioP1;P1;durP2;ratioP2;P2;SDS_P1;SDS_P2;PMS_P1;PMS_P2;Temp;Humidity;BMP_temperature;BMP_pressure;BME280_temperature;BME280_humidity;BME280_pressure;Samples;Min_cycle;Max_cycle;Signal;HPM_P1;HPM_P2
2023/10/11 00:02:44;;;;;;;;;;;18.30;57.40;;;17.39;59.07;101080.50;12273898;19;19930;-83
2023/10/11 00:06:49;;;;;;;;;;;18.30;57.40;;;17.28;59.10;101066.44;12274392;19;19982;-83
2023/10/11 00:10:55;;;;;;;;;;;18.20;57.40;;;17.28;59.02;101063.81;12266820;19;19918;-83
2023/10/11 00:14:57;;;;;;;;;;;18.20;57.40;;;17.29;58.99;101073.41;12269116;19;19982;-84
2023/10/11 00:18:59;;;;;;;;;;;18.20;57.40;;;17.23;59.19;101062.38;12266443;19;20654;-83
2023/10/11 00:23:00;;;;;;;;;;;18.20;57.40;;;17.22;59.00;101049.28;12271855;19;19915;-82
2023/10/11 00:27:02;;;;;;;;;;;18.10;57.40;;;17.19;59.23;101044.25;12274320;19;19919;-83
2023/10/11 00:31:06;;;;;;;;;;;18.10;57.40;;;17.24;59.06;101053.50;12269569;19;19926;-82
2023/10/11 00:35:13;;;;;;;;;;;18.10;57.40;;;17.21;58.99;101052.91;12267733;19;20338;-84
2023/10/11 00:39:17;;;;;;;;;;;18.10;57.50;;;17.14;59.08;101041.13;12267971;19;19926;-83
2023/10/11 00:43:31;;;;;;;;;;;18.00;57.50;;;17.17;59.12;101051.44;12271462;19;19922;-83
2023/10/11 00:47:40;;;;;;;;;;;18.00;57.50;;;17.01;59.24;101020.13;12269766;19;19923;-84
2023/10/11 00:51:46;;;;;;;;;;;18.00;57.50;;;17.02;59.05;101027.09;12270430;19;19911;-84
2023/10/11 00:55:48;;;;;;;;;;;17.90;57.50;;;17.03;59.06;101041.97;12267608;19;19910;-83
2023/10/11 00:59:50;;;;;;;;;;;17.90;57.50;;;17.04;59.08;101041.03;12271562;19;19974;-84
2023/10/11 01:03:53;;;;;;;;;;;17.90;57.50;;;17.00;59.35;101043.03;12275642;19;19950;-83
2023/10/11 01:07:55;;;;;;;;;;;17.90;57.60;;;16.69;59.10;100999.69;12276316;19;19934;-84
2023/10/11 01:11:57;;;;;;;;;;;17.90;57.60;;;16.92;59.32;101041.94;12278327;19;19927;-83
2023/10/11 01:15:59;;;;;;;;;;;17.80;57.60;;;16.90;59.16;101038.59;12274963;19;19919;-83
2023/10/11 01:20:05;;;;;;;;;;;17.80;57.60;;;16.90;59.23;101035.94;12275362;19;19938;-83
2023/10/11 01:24:08;;;;;;;;;;;17.80;57.70;;;16.82;59.27;101015.44;12276186;19;19939;-83
2023/10/11 01:28:10;;;;;;;;;;;17.70;57.80;;;16.69;59.26;100994.41;12276103;19;19926;-84
2023/10/11 01:32:12;;;;;;;;;;;17.70;58.00;;;16.78;59.22;101012.19;12274956;19;20346;-85
2023/10/11 01:36:21;;;;;;;;;;;17.70;58.00;;;16.91;59.43;101019.19;12274922;19;20288;-83
2023/10/11 01:40:26;;;;;;;;;;;17.70;58.10;;;16.87;59.44;101007.16;12272781;19;20008;-83
2023/10/11 01:44:30;;;;;;;;;;;17.80;58.20;;;16.97;59.30;100994.94;12270840;19;19919;-83
2023/10/11 01:48:31;;;;;;;;;;;17.80;58.30;;;16.93;59.51;100989.09;12273391;19;19915;-84
2023/10/11 01:52:34;;;;;;;;;;;17.90;58.40;;;16.98;59.46;100986.91;12271172;19;19926;-83
2023/10/11 01:56:37;;;;;;;;;;;17.90;58.50;;;17.00;59.46;100970.97;12265816;19;19918;-84
2023/10/11 02:00:39;;;;;;;;;;;17.90;58.50;;;17.05;59.45;100967.97;12265091;19;19926;-83
2023/10/11 02:04:41;;;;;;;;;;;18.00;58.50;;;17.11;59.61;100978.03;12268142;19;19987;-83
2023/10/11 02:08:43;;;;;;;;;;;18.00;58.50;;;17.12;59.66;100988.47;12266576;19;19930;-83
2023/10/11 02:12:45;;;;;;;;;;;18.00;58.40;;;17.16;59.76;100978.50;12266503;19;19919;-82
2023/10/11 02:16:46;;;;;;;;;;;18.00;58.50;;;17.18;59.68;100976.59;12273025;19;19922;-82
2023/10/11 02:20:48;;;;;;;;;;;18.00;58.80;;;17.17;59.41;100965.19;12275577;19;20247;-83
2023/10/11 02:24:51;;;;;;;;;;;18.10;58.50;;;17.21;59.55;100977.19;12274848;19;19926;-83
2023/10/11 02:28:54;;;;;;;;;;;18.10;58.50;;;17.20;59.55;100962.31;12276652;19;19923;-84
2023/10/11 02:32:58;;;;;;;;;;;18.20;58.70;;;17.27;59.63;100961.84;12275512;19;19923;-84
2023/10/11 02:37:04;;;;;;;;;;;18.20;58.60;;;17.29;59.55;100960.75;12275907;19;19919;-83
2023/10/11 02:41:07;;;;;;;;;;;18.20;58.60;;;17.28;59.80;100950.28;12273794;19;19921;-83
2023/10/11 02:45:09;;;;;;;;;;;18.20;58.50;;;17.31;59.71;100939.50;12276643;19;19918;-85
2023/10/11 02:49:19;;;;;;;;;;;18.30;58.60;;;17.27;59.46;100932.78;12269621;19;19918;-84
2023/10/11 02:53:21;;;;;;;;;;;18.30;58.50;;;17.31;59.85;100937.72;12272690;19;19963;-83
2023/10/11 02:57:25;;;;;;;;;;;18.30;58.50;;;17.33;59.71;100941.03;12273150;19;19907;-82
2023/10/11 03:01:31;;;;;;;;;;;18.30;58.40;;;17.33;59.59;100925.22;12271792;19;20304;-83
2023/10/11 03:05:37;;;;;;;;;;;18.30;58.40;;;17.35;59.92;100928.56;12274841;19;19914;-84
2023/10/11 03:09:40;;;;;;;;;;;18.30;58.30;;;17.35;59.61;100920.66;12272029;19;19918;-83
2023/10/11 03:13:43;;;;;;;;;;;18.30;58.30;;;17.38;59.81;100923.03;12267537;19;19915;-83
2023/10/11 03:17:48;;;;;;;;;;;18.30;58.20;;;17.39;59.86;100913.31;12273830;19;19927;-83
2023/10/11 03:21:53;;;;;;;;;;;18.30;58.30;;;17.39;59.74;100903.63;12273966;19;19915;-84
2023/10/11 03:25:55;;;;;;;;;;;18.30;58.40;;;17.35;59.91;100891.63;12276269;19;19940;-84
2023/10/11 03:29:56;;;;;;;;;;;18.30;58.30;;;17.35;59.70;100890.78;12274138;19;19915;-84
2023/10/11 03:34:00;;;;;;;;;;;18.40;58.30;;;17.36;60.02;100892.44;12276841;19;19914;-84
2023/10/11 03:38:02;;;;;;;;;;;18.40;58.30;;;17.42;59.79;100886.69;12276045;19;20034;-84
2023/10/11 03:42:07;;;;;;;;;;;18.40;58.50;;;17.48;59.84;100891.47;12271554;19;19930;-83
2023/10/11 03:46:15;;;;;;;;;;;18.40;58.30;;;17.49;59.88;100898.41;12274095;19;19946;-83
2023/10/11 03:50:24;;;;;;;;;;;18.50;58.30;;;17.48;59.99;100891.47;12270999;19;19923;-82
2023/10/11 03:54:26;;;;;;;;;;;18.50;58.30;;;17.51;59.95;100893.00;12273853;19;19923;-83
2023/10/11 04:02:32;;;;;;;;;;;18.50;58.30;;;17.54;59.73;100872.47;12285323;19;19923;-83
2023/10/11 04:06:34;;;;;;;;;;;18.50;58.20;;;17.52;60.04;100861.19;12287930;19;19919;-83
2023/10/11 04:10:39;;;;;;;;;;;18.60;58.30;;;17.60;60.02;100876.41;12284488;19;19951;-83
2023/10/11 04:14:45;;;;;;;;;;;18.60;58.20;;;17.52;60.03;100860.34;12285278;19;19914;-84
2023/10/11 04:18:47;;;;;;;;;;;18.60;58.20;;;17.57;59.84;100852.88;12282563;19;19984;-83
2023/10/11 04:22:57;;;;;;;;;;;18.60;58.10;;;17.65;60.03;100874.22;12287240;19;19915;-84
2023/10/11 04:31:36;;;;;;;;;;;18.60;58.10;;;17.66;59.70;100874.09;12281638;19;19915;-82
2023/10/11 04:35:56;;;;;;;;;;;18.60;58.10;;;17.53;60.05;100844.41;12281644;19;20508;-84
2023/10/11 04:40:22;;;;;;;;;;;18.60;58.10;;;17.65;59.94;100867.13;12283673;19;19923;-82
2023/10/11 04:44:19;;;;;;;;;;;18.60;58.00;;;17.67;59.78;100861.75;12284419;19;19918;-83
2023/10/11 04:48:33;;;;;;;;;;;18.60;58.00;;;17.39;59.97;100810.34;12282946;19;19918;-85
2023/10/11 04:52:36;;;;;;;;;;;18.70;58.00;;;17.65;59.94;100850.44;12286045;19;19930;-84
2023/10/11 05:00:47;;;;;;;;;;;18.70;58.00;;;17.63;60.12;100853.25;12281763;19;19923;-85
2023/10/11 05:04:51;;;;;;;;;;;18.70;57.90;;;17.51;59.76;100827.84;12280931;19;19923;-85
2023/10/11 05:09:02;;;;;;;;;;;18.60;57.90;;;17.69;59.93;100851.88;12282392;19;19927;-85
2023/10/11 05:13:13;;;;;;;;;;;18.60;57.80;;;17.60;59.98;100842.91;12282603;19;19930;-84
2023/10/11 05:21:26;;;;;;;;;;;18.60;57.80;;;17.69;59.86;100851.88;12278080;19;19926;-85
2023/10/11 05:25:52;;;;;;;;;;;18.70;57.80;;;17.65;59.74;100850.44;12281252;19;19922;-84
2023/10/11 05:30:44;;;;;;;;;;;18.60;57.80;;;17.67;59.84;100845.88;12278471;19;19919;-84
2023/10/11 05:34:46;;;;;;;;;;;18.70;57.80;;;17.65;59.71;100848.66;12275973;19;19911;-85
2023/10/11 05:51:50;;;;;;;;;;;18.60;57.70;;;17.65;59.90;100846.00;12275909;19;19942;-85
2023/10/11 05:55:52;;;;;;;;;;;18.60;57.70;;;17.64;59.85;100849.63;12273403;19;19917;-85
2023/10/11 05:59:54;;;;;;;;;;;18.60;57.70;;;17.67;59.96;100851.16;12273470;19;19915;-83
2023/10/11 06:03:56;;;;;;;;;;;18.60;57.70;;;17.68;59.78;100851.03;12274828;19;19915;-85
2023/10/11 06:08:04;;;;;;;;;;;18.70;57.70;;;17.62;59.75;100840.97;12261668;19;19919;-84
2023/10/11 06:12:22;;;;;;;;;;;18.70;57.70;;;17.70;59.97;100848.28;12279585;19;19935;-85
2023/10/11 06:16:24;;;;;;;;;;;18.60;57.70;;;17.68;59.91;100842.28;12277588;19;19923;-85
2023/10/11 06:20:26;;;;;;;;;;;18.70;57.70;;;17.51;59.71;100814.63;12272476;19;19927;-85
2023/10/11 06:24:33;;;;;;;;;;;18.70;57.70;;;17.60;59.94;100828.88;12276948;19;19939;-85
2023/10/11 06:28:35;;;;;;;;;;;18.60;57.70;;;17.69;59.86;100842.16;12274186;19;19930;-86
2023/10/11 06:32:36;;;;;;;;;;;18.70;57.70;;;17.70;59.94;100835.06;12272355;19;19915;-83
2023/10/11 06:36:38;;;;;;;;;;;18.70;57.70;;;17.73;59.70;100836.63;12266885;19;19925;-85
2023/10/11 06:40:39;;;;;;;;;;;18.70;57.80;;;17.73;59.73;100833.97;12256598;19;19907;-84
2023/10/11 06:44:47;;;;;;;;;;;18.70;57.80;;;17.81;59.81;100840.31;12268149;19;19938;-83
2023/10/11 06:48:49;;;;;;;;;;;18.70;57.80;;;17.82;59.77;100841.16;12270689;19;19926;-85
2023/10/11 06:52:50;;;;;;;;;;;18.80;57.80;;;17.85;59.99;100846.19;12265848;19;19937;-83
2023/10/11 06:56:51;;;;;;;;;;;18.90;57.90;;;17.94;59.79;100860.44;12256632;19;19907;-84
2023/10/11 07:00:53;;;;;;;;;;;18.90;57.90;;;17.95;59.92;100847.06;12270662;19;20373;-86
2023/10/11 07:04:55;;;;;;;;;;;18.90;57.90;;;18.04;59.73;100861.34;12281439;19;20322;-86
2023/10/11 07:08:58;;;;;;;;;;;19.00;57.90;;;18.08;59.79;100866.22;12275973;19;19915;-85
2023/10/11 07:13:05;;;;;;;;;;;19.00;57.90;;;18.14;59.79;100864.84;12263841;19;19919;-86
2023/10/11 07:17:08;;;;;;;;;;;19.10;57.90;;;18.14;60.17;100863.03;12274016;19;19915;-84
2023/10/11 07:21:10;;;;;;;;;;;19.20;57.90;;;18.25;60.08;100858.66;12269118;19;19907;-83
2023/10/11 07:25:36;;;;;;;;;;;19.20;57.90;;;18.30;59.88;100856.47;12263953;19;20026;-84
2023/10/11 07:29:42;;;;;;;;;;;19.30;57.90;;;18.37;59.78;100848.84;12274262;19;19914;-86
2023/10/11 07:33:50;;;;;;;;;;;19.40;57.90;;;18.41;60.03;100863.47;12255712;19;19919;-84
2023/10/11 07:37:51;;;;;;;;;;;19.40;57.90;;;18.47;59.85;100850.56;12266513;19;20396;-84
2023/10/11 07:46:04;;;;;;;;;;;19.60;57.90;;;18.53;59.79;100826.22;12259485;19;19932;-88
2023/10/11 07:50:09;;;;;;;;;;;19.60;57.60;;;18.53;59.83;100813.00;12254385;19;19919;-88
2023/10/11 07:54:19;;;;;;;;;;;19.80;57.90;;;18.72;59.79;100841.31;12258432;19;19919;-85
2023/10/11 07:58:30;;;;;;;;;;;19.80;57.90;;;18.78;60.21;100830.22;12254807;19;19915;-86
2023/10/11 08:02:41;;;;;;;;;;;19.90;58.00;;;18.99;59.89;100840.72;12255733;19;19918;-86
2023/10/11 08:06:43;;;;;;;;;;;20.10;58.00;;;19.10;60.24;100836.28;12251287;19;19918;-86
2023/10/11 08:10:45;;;;;;;;;;;20.20;58.00;;;19.16;59.99;100820.69;12251995;19;20306;-87
2023/10/11 08:14:47;;;;;;;;;;;20.30;57.80;;;19.18;59.86;100799.38;12254674;19;19927;-88
2023/10/11 08:18:49;;;;;;;;;;;20.40;57.60;;;19.50;60.25;100824.75;12252456;19;19918;-87
2023/10/11 08:22:55;;;;;;;;;;;20.50;57.80;;;19.50;60.12;100809.69;12252008;19;19918;-88
2023/10/11 08:27:06;;;;;;;;;;;20.70;57.80;;;19.71;59.96;100827.25;12255580;19;19907;-87
2023/10/11 08:31:09;;;;;;;;;;;20.80;57.50;;;19.80;59.99;100824.59;12249733;19;19918;-87
2023/10/11 08:35:26;;;;;;;;;;;20.90;57.40;;;19.84;60.31;100817.19;12254772;19;19915;-91
2023/10/11 08:39:41;;;;;;;;;;;20.90;57.50;;;20.04;60.01;100818.00;12251455;19;19918;-88
2023/10/11 08:43:43;;;;;;;;;;;21.10;57.60;;;20.04;59.89;100802.94;12254528;19;19922;-85
2023/10/11 08:47:45;;;;;;;;;;;21.20;57.50;;;20.26;60.37;100815.00;12250204;19;20600;-88
2023/10/11 08:51:48;;;;;;;;;;;21.40;57.50;;;20.33;60.39;100800.16;12254899;19;19925;-87
2023/10/11 08:55:56;;;;;;;;;;;21.50;57.60;;;20.54;60.02;100805.25;12252038;19;19919;-87
2023/10/11 08:59:58;;;;;;;;;;;21.70;57.60;;;20.65;59.86;100804.22;12248976;19;20371;-87
2023/10/11 09:04:05;;;;;;;;;;;21.80;57.40;;;20.88;60.18;100814.44;12251132;19;20278;-87
2023/10/11 09:08:18;;;;;;;;;;;22.00;57.50;;;20.81;59.75;100797.44;12253283;19;19932;-86
2023/10/11 09:12:26;;;;;;;;;;;22.20;57.40;;;21.11;59.84;100822.78;12250889;19;19915;-87
2023/10/11 09:16:37;;;;;;;;;;;22.20;57.20;;;21.10;60.02;100787.44;12252045;19;19915;-87
2023/10/11 09:20:42;;;;;;;;;;;22.40;57.30;;;21.33;59.91;100795.78;12248518;19;19922;-87
2023/10/11 09:24:44;;;;;;;;;;;22.50;56.80;;;21.51;60.01;100797.63;12252883;19;19961;-87
2023/10/11 09:28:47;;;;;;;;;;;22.60;57.10;;;21.62;60.32;100810.66;12249233;19;19919;-87
2023/10/11 09:32:49;;;;;;;;;;;22.80;57.10;;;21.78;59.81;100807.28;12252011;19;19923;-87
2023/10/11 09:36:56;;;;;;;;;;;22.90;57.30;;;21.91;59.77;100810.38;12251155;19;19919;-90
2023/10/11 09:40:58;;;;;;;;;;;23.10;57.20;;;22.00;60.05;100801.44;12247024;19;19979;-88
2023/10/11 09:45:01;;;;;;;;;;;23.30;57.20;;;21.94;59.68;100772.81;12250347;19;19910;-87
2023/10/11 09:49:04;;;;;;;;;;;23.40;57.00;;;22.37;60.10;100823.47;12249209;19;19911;-87
2023/10/11 09:53:07;;;;;;;;;;;23.60;57.10;;;22.53;60.09;100818.19;12249652;19;19918;-87
2023/10/11 09:57:20;;;;;;;;;;;23.70;56.70;;;22.59;59.62;100806.91;12250150;19;19915;-87
2023/10/11 10:01:45;;;;;;;;;;;23.90;56.60;;;22.65;59.97;100776.13;12247803;19;19918;-87
2023/10/11 10:06:05;;;;;;;;;;;24.00;56.80;;;22.95;59.99;100807.53;12249463;19;19927;-86
2023/10/11 10:10:08;;;;;;;;;;;24.10;56.60;;;23.01;59.53;100816.72;12247895;19;19922;-86
2023/10/11 10:14:23;;;;;;;;;;;24.30;56.70;;;23.21;59.48;100827.88;12249062;19;19918;-86
2023/10/11 10:18:27;;;;;;;;;;;24.40;56.00;;;23.29;59.75;100814.56;12248766;19;19915;-86
2023/10/11 10:22:31;;;;;;;;;;;24.50;56.00;;;23.16;59.60;100780.41;12239996;19;19925;-86
2023/10/11 10:26:32;;;;;;;;;;;24.60;56.20;;;23.40;59.64;100803.59;12247717;19;19942;-86
2023/10/11 10:31:13;;;;;;;;;;;24.60;54.20;;;23.44;59.32;100793.44;12246319;19;19923;-86
2023/10/11 10:35:20;;;;;;;;;;;24.60;55.60;;;23.57;59.43;100809.75;12248905;19;19926;-86
2023/10/11 10:43:23;;;;;;;;;;;24.80;55.80;;;23.69;59.41;100790.75;12246961;19;20252;-86
2023/10/11 10:47:28;;;;;;;;;;;24.90;56.00;;;23.71;59.20;100776.28;12246240;19;19982;-88
2023/10/11 10:51:39;;;;;;;;;;;25.00;54.70;;;23.91;58.94;100783.91;12243143;19;19922;-86
2023/10/11 10:55:45;;;;;;;;;;;25.10;55.80;;;23.91;58.84;100759.91;12244545;19;19919;-86
2023/10/11 10:59:50;;;;;;;;;;;25.20;55.20;;;24.12;59.24;100792.19;12244302;19;19934;-86
2023/10/11 11:03:57;;;;;;;;;;;25.30;53.90;;;24.27;59.08;100792.28;12242786;19;19927;-86
2023/10/11 11:08:15;;;;;;;;;;;25.40;55.40;;;24.31;59.17;100766.09;12242494;19;19976;-85
2023/10/11 11:12:17;;;;;;;;;;;25.50;55.10;;;24.39;58.88;100779.41;12243277;19;19940;-85
2023/10/11 11:16:19;;;;;;;;;;;25.60;54.90;;;24.53;58.58;100776.03;12243292;19;20242;-85
2023/10/11 11:20:31;;;;;;;;;;;25.70;54.80;;;24.54;58.75;100772.34;12243105;19;19922;-86
2023/10/11 11:24:36;;;;;;;;;;;25.70;54.80;;;24.57;58.29;100766.66;12245355;19;19947;-85
2023/10/11 11:28:42;;;;;;;;;;;25.80;53.10;;;24.58;58.66;100746.97;12247000;19;19915;-86
2023/10/11 11:32:45;;;;;;;;;;;25.80;54.60;;;24.71;58.22;100760.59;12246769;19;19944;-86
2023/10/11 11:36:54;;;;;;;;;;;25.80;54.80;;;24.79;58.53;100767.72;12248569;19;19970;-86
2023/10/11 11:41:04;;;;;;;;;;;25.90;52.90;;;24.84;58.23;100743.94;12241894;19;20273;-86
2023/10/11 11:45:08;;;;;;;;;;;25.90;53.90;;;24.86;58.33;100736.59;12245541;19;19936;-87
2023/10/11 11:49:09;;;;;;;;;;;26.00;54.30;;;24.84;58.17;100732.44;12242777;19;19922;-87
2023/10/11 11:53:11;;;;;;;;;;;26.00;54.80;;;24.96;58.11;100736.38;12245562;19;19907;-87
2023/10/11 11:57:13;;;;;;;;;;;26.10;54.30;;;25.04;57.95;100733.63;12244815;19;20315;-87
2023/10/11 12:01:19;;;;;;;;;;;26.10;53.90;;;25.04;57.55;100716.78;12243247;19;19963;-87
2023/10/11 12:05:21;;;;;;;;;;;26.20;54.60;;;25.16;57.76;100721.53;12245426;19;19915;-87
2023/10/11 12:09:31;;;;;;;;;;;26.20;53.90;;;25.12;57.81;100708.69;12243128;19;19935;-87
2023/10/11 12:13:32;;;;;;;;;;;26.20;53.80;;;25.06;57.73;100696.03;12238280;19;19918;-88
2023/10/11 12:17:37;;;;;;;;;;;26.30;51.90;;;25.09;57.78;100693.84;12242227;19;19939;-87
2023/10/11 12:21:39;;;;;;;;;;;26.30;54.00;;;25.22;57.71;100713.78;12245144;19;20285;-87
2023/10/11 12:25:47;;;;;;;;;;;26.30;54.30;;;25.25;57.44;100708.09;12253576;19;19915;-88
2023/10/11 12:29:49;;;;;;;;;;;26.30;52.00;;;25.28;57.40;100702.41;12252361;19;19935;-89
2023/10/11 12:33:50;;;;;;;;;;;26.30;52.80;;;25.27;57.33;100703.41;12251209;19;19922;-88
2023/10/11 12:37:52;;;;;;;;;;;26.40;53.50;;;25.38;57.48;100719.84;12252343;19;19919;-87
2023/10/11 12:41:59;;;;;;;;;;;26.40;53.40;;;25.39;57.23;100723.34;12252310;19;19923;-88
2023/10/11 12:46:01;;;;;;;;;;;26.40;53.60;;;25.45;56.92;100724.47;12254838;19;19923;-88
2023/10/11 12:50:03;;;;;;;;;;;26.40;53.20;;;25.45;57.15;100717.25;12250364;19;19986;-88
2023/10/11 12:54:08;;;;;;;;;;;26.50;53.70;;;25.43;57.10;100702.41;12254989;19;19917;-90
2023/10/11 12:58:13;;;;;;;;;;;26.40;53.10;;;25.33;56.93;100692.81;12259891;19;19930;-83
2023/10/11 13:02:21;;;;;;;;;;;26.50;53.00;;;25.52;56.85;100728.91;12270670;19;20464;-83
2023/10/11 13:06:22;;;;;;;;;;;26.50;52.40;;;25.45;56.93;100695.03;12261739;19;19927;-84
2023/10/11 13:10:24;;;;;;;;;;;26.40;53.30;;;25.46;56.91;100686.81;12266998;19;19933;-83
2023/10/11 13:14:26;;;;;;;;;;;26.50;53.90;;;25.55;56.92;100693.75;12268118;19;19931;-83
2023/10/11 13:18:31;;;;;;;;;;;26.50;53.40;;;25.47;56.46;100675.13;12265531;19;19919;-82
2023/10/11 13:22:32;;;;;;;;;;;26.50;52.60;;;25.55;56.54;100684.91;12268700;19;19944;-83
2023/10/11 13:26:35;;;;;;;;;;;26.50;52.20;;;25.51;56.23;100686.28;12269856;19;19923;-81
2023/10/11 13:30:36;;;;;;;;;;;26.50;53.00;;;25.52;56.43;100688.78;12261733;19;19936;-85
2023/10/11 13:34:42;;;;;;;;;;;26.50;53.20;;;25.48;56.39;100673.28;12265297;19;19922;-82
2023/10/11 13:38:45;;;;;;;;;;;26.40;53.40;;;25.54;56.43;100676.03;12257878;19;19936;-84
2023/10/11 13:42:46;;;;;;;;;;;26.40;51.70;;;25.55;56.20;100677.72;12253484;19;20269;-83
2023/10/11 13:46:53;;;;;;;;;;;26.40;53.00;;;25.56;56.47;100670.50;12257091;19;19946;-84
2023/10/11 13:50:54;;;;;;;;;;;26.50;52.90;;;25.57;56.02;100666.81;12256373;19;20277;-85
2023/10/11 13:55:00;;;;;;;;;;;26.40;53.70;;;25.52;55.88;100658.50;12255963;19;20333;-84
2023/10/11 13:59:02;;;;;;;;;;;26.40;52.50;;;25.55;55.98;100667.03;12260937;19;19967;-83
2023/10/11 14:07:34;;;;;;;;;;;26.40;52.40;;;25.55;56.00;100650.16;12267934;19;19917;-84
2023/10/11 14:11:38;;;;;;;;;;;26.40;51.90;;;25.49;55.97;100641.03;12265698;19;19935;-84
2023/10/11 14:15:39;;;;;;;;;;;26.40;52.60;;;25.51;55.75;100647.00;12270250;19;19933;-84
2023/10/11 14:19:41;;;;;;;;;;;26.40;52.80;;;25.54;55.72;100643.13;12260734;19;19927;-84
2023/10/11 14:23:44;;;;;;;;;;;26.40;53.00;;;25.56;55.53;100643.78;12259841;19;19938;-83
2023/10/11 14:27:47;;;;;;;;;;;26.40;52.80;;;25.47;55.61;100615.47;12259537;19;19922;-84
2023/10/11 14:31:48;;;;;;;;;;;26.40;51.30;;;25.56;55.38;100625.06;12264238;19;19929;-83
2023/10/11 14:35:50;;;;;;;;;;;26.40;52.80;;;25.49;55.35;100624.97;12252531;19;19922;-83
2023/10/11 14:39:51;;;;;;;;;;;26.40;52.40;;;25.51;55.27;100612.22;12246422;19;19922;-83
2023/10/11 14:43:53;;;;;;;;;;;26.40;52.20;;;25.53;55.37;100622.75;12254279;19;19926;-83
2023/10/11 14:47:55;;;;;;;;;;;26.40;52.50;;;25.52;55.49;100631.78;12255742;19;19923;-83
2023/10/11 14:51:57;;;;;;;;;;;26.40;51.90;;;25.52;55.45;100615.72;12261653;19;19921;-84
2023/10/11 14:56:03;;;;;;;;;;;26.30;52.40;;;25.44;55.35;100597.97;12258251;19;19990;-83
2023/10/11 15:00:06;;;;;;;;;;;26.30;52.60;;;25.48;55.39;100612.59;12257787;19;19926;-83
2023/10/11 15:04:10;;;;;;;;;;;26.30;52.70;;;25.47;55.02;100605.59;12258979;19;19930;-83
2023/10/11 15:08:15;;;;;;;;;;;26.30;52.60;;;25.45;54.82;100610.31;12259043;19;19957;-83
2023/10/11 15:12:17;;;;;;;;;;;26.30;52.70;;;25.41;54.85;100605.50;12256258;19;19969;-83
2023/10/11 15:16:19;;;;;;;;;;;26.20;52.70;;;25.32;54.98;100605.59;12259550;19;20417;-84
2023/10/11 15:20:21;;;;;;;;;;;26.20;52.00;;;25.37;54.94;100615.75;12258887;19;19919;-84
2023/10/11 15:24:23;;;;;;;;;;;26.20;52.00;;;25.33;54.93;100614.44;12264015;19;20670;-83
2023/10/11 15:28:25;;;;;;;;;;;26.10;52.40;;;25.26;54.64;100613.53;12262068;19;20016;-84
2023/10/11 15:32:26;;;;;;;;;;;26.10;52.10;;;25.22;54.56;100606.88;12263361;19;19922;-84
2023/10/11 15:36:31;;;;;;;;;;;26.00;52.20;;;25.16;54.77;100598.56;12259933;19;19929;-84
2023/10/11 15:40:32;;;;;;;;;;;26.00;52.60;;;25.11;54.68;100592.94;12256112;19;19947;-84
2023/10/11 15:44:34;;;;;;;;;;;26.00;52.00;;;25.08;54.85;100597.81;12264397;19;19919;-84
2023/10/11 15:48:36;;;;;;;;;;;25.90;52.00;;;25.06;54.48;100616.72;12259522;19;19926;-83
2023/10/11 15:52:41;;;;;;;;;;;25.90;50.40;;;25.09;54.63;100635.03;12267764;19;19962;-83
2023/10/11 15:56:43;;;;;;;;;;;25.80;52.00;;;25.05;54.31;100639.09;12270187;19;19931;-84
2023/10/11 16:00:45;;;;;;;;;;;25.80;52.20;;;24.98;54.48;100643.50;12270710;19;19926;-83
2023/10/11 16:04:46;;;;;;;;;;;25.70;52.30;;;24.92;54.31;100642.41;12278170;19;19947;-84
2023/10/11 16:08:48;;;;;;;;;;;25.70;52.30;;;24.86;54.63;100632.41;12273280;19;19923;-81
2023/10/11 16:12:50;;;;;;;;;;;25.60;52.10;;;24.87;54.34;100633.22;12281788;19;19951;-83
2023/10/11 16:16:55;;;;;;;;;;;25.60;52.20;;;24.88;54.14;100646.41;12277837;19;19926;-83
2023/10/11 16:20:58;;;;;;;;;;;25.60;52.20;;;24.83;53.99;100650.66;12288239;19;19925;-85
2023/10/11 16:24:59;;;;;;;;;;;25.50;52.00;;;24.68;54.51;100637.22;12290845;19;20424;-84
2023/10/11 16:29:01;;;;;;;;;;;25.50;52.20;;;24.63;54.45;100634.28;12281679;19;19923;-85
2023/10/11 16:33:05;;;;;;;;;;;25.40;52.10;;;24.67;54.08;100664.97;12277062;19;19911;-84
2023/10/11 16:37:06;;;;;;;;;;;25.30;52.20;;;24.60;53.80;100661.31;12282788;19;19911;-84
2023/10/11 16:41:08;;;;;;;;;;;25.30;52.10;;;24.53;53.81;100645.19;12282698;19;19911;-83
2023/10/11 16:45:13;;;;;;;;;;;25.20;52.10;;;24.54;54.05;100660.19;12280295;19;19978;-84
2023/10/11 16:49:16;;;;;;;;;;;25.20;52.10;;;24.48;54.05;100651.06;12286573;19;19918;-85
2023/10/11 16:53:17;;;;;;;;;;;25.20;52.10;;;24.45;53.97;100647.94;12285784;19;19923;-83
2023/10/11 16:57:19;;;;;;;;;;;25.10;52.10;;;24.34;53.85;100645.63;12280027;19;19918;-84
2023/10/11 17:01:21;;;;;;;;;;;25.00;52.20;;;23.98;54.09;100598.13;12275045;19;20019;-84
2023/10/11 17:05:22;;;;;;;;;;;25.00;52.20;;;24.24;54.04;100648.53;12277788;19;19931;-84
2023/10/11 17:09:23;;;;;;;;;;;24.90;52.20;;;23.82;53.69;100586.56;12265766;19;19929;-85
2023/10/11 17:13:25;;;;;;;;;;;24.90;52.20;;;24.22;53.86;100666.53;12283802;19;19948;-84
2023/10/11 17:17:26;;;;;;;;;;;24.80;52.20;;;24.15;53.83;100657.59;12279834;19;19950;-84
2023/10/11 17:21:28;;;;;;;;;;;24.80;52.20;;;24.10;53.58;100647.44;12286192;19;19931;-85
2023/10/11 17:25:30;;;;;;;;;;;24.80;52.30;;;24.06;53.64;100649.63;12284063;19;19919;-84
2023/10/11 17:29:32;;;;;;;;;;;24.70;52.30;;;23.99;53.47;100650.50;12282712;19;19917;-85
2023/10/11 17:33:35;;;;;;;;;;;24.70;52.20;;;23.92;53.42;100647.69;12287490;19;19915;-85
2023/10/11 17:37:40;;;;;;;;;;;24.60;52.50;;;23.88;53.59;100634.88;12287955;19;19918;-86
2023/10/11 17:41:42;;;;;;;;;;;24.50;52.10;;;23.88;54.02;100645.56;12284749;19;19926;-85
2023/10/11 17:45:44;;;;;;;;;;;24.50;52.10;;;23.81;53.47;100653.41;12289749;19;19919;-85
2023/10/11 17:49:45;;;;;;;;;;;24.40;52.10;;;23.72;53.69;100633.94;12286937;19;19930;-84
2023/10/11 17:53:47;;;;;;;;;;;24.40;52.10;;;23.71;53.47;100648.28;12290224;19;19926;-85
2023/10/11 17:57:48;;;;;;;;;;;24.30;52.00;;;23.68;53.93;100645.09;12280035;19;19923;-83
2023/10/11 18:01:51;;;;;;;;;;;24.30;52.10;;;23.61;53.46;100656.44;12284179;19;19914;-83
2023/10/11 18:05:52;;;;;;;;;;;24.30;52.10;;;23.60;53.81;100643.28;12287281;19;19907;-84
2023/10/11 18:09:54;;;;;;;;;;;24.20;52.00;;;23.42;53.51;100614.19;12282537;19;19918;-84
2023/10/11 18:13:57;;;;;;;;;;;24.20;52.00;;;23.49;53.67;100636.47;12281681;19;19919;-84
2023/10/11 18:18:01;;;;;;;;;;;24.20;52.10;;;23.48;53.67;100632.16;12286910;19;19919;-83
2023/10/11 18:22:02;;;;;;;;;;;24.10;51.90;;;23.38;53.50;100624.34;12281687;19;19922;-85
2023/10/11 18:26:03;;;;;;;;;;;24.10;52.00;;;23.33;53.81;100621.38;12275764;19;19942;-85
2023/10/11 18:30:05;;;;;;;;;;;24.00;51.90;;;23.37;53.32;100616.53;12278356;19;19907;-85
2023/10/11 18:34:08;;;;;;;;;;;24.00;52.30;;;23.35;53.60;100624.69;12284448;19;19982;-84
2023/10/11 18:38:09;;;;;;;;;;;24.00;52.00;;;23.09;53.57;100586.81;12280128;19;19919;-85
2023/10/11 18:42:16;;;;;;;;;;;23.90;51.80;;;23.02;53.42;100572.50;12278052;19;19922;-84
2023/10/11 18:46:18;;;;;;;;;;;23.90;51.60;;;23.20;53.38;100602.44;12274944;19;19929;-86
2023/10/11 18:50:21;;;;;;;;;;;23.80;51.80;;;22.91;53.57;100569.13;12277900;19;19915;-84
2023/10/11 18:54:23;;;;;;;;;;;23.90;51.80;;;23.18;53.57;100623.06;12279299;19;19931;-84
2023/10/11 18:58:25;;;;;;;;;;;23.80;51.80;;;23.06;53.42;100611.09;12283031;19;19910;-85
2023/10/11 19:02:27;;;;;;;;;;;23.80;51.90;;;23.07;53.70;100626.09;12277109;19;19918;-85